Time;durP1;ratioP1;P1;durP2;ratioP2;P2;SDS_P1;SDS_P2;PMS_P1;PMS_P2;Temp;Humidity;BMP_temperature;BMP_pressure;BME280_temperature;BME280_humidity;BME280_pressure;Samples;Min_cycle;Max_cycle;Signal;HPM_P1;HPM_P2
2021/09/06 00:00:07;;;;;;;11.82;10.15;;;;;;;10.67;100.00;96344.16;1034508;28;20284;-65
2021/09/06 00:00:37;;;;;;;12.50;9.07;;;;;;;10.66;100.00;96345.97;1028740;28;20043;-65
2021/09/06 00:01:08;;;;;;;11.07;8.85;;;;;;;10.70;100.00;96354.16;1026625;28;20293;-65
2021/09/06 00:01:39;;;;;;;12.43;10.10;;;;;;;10.68;100.00;96354.41;1029794;28;20026;-65
2021/09/06 00:02:09;;;;;;;11.75;9.68;;;;;;;10.68;100.00;96349.16;1026292;28;20065;-66
2021/09/06 00:02:40;;;;;;;14.23;10.05;;;;;;;10.67;100.00;96352.03;1023083;28;20057;-68
2021/09/06 00:03:11;;;;;;;12.57;10.02;;;;;;;10.67;100.00;96352.03;1026802;28;20022;-66
2021/09/06 00:03:44;;;;;;;12.57;10.27;;;;;;;10.65;100.00;96348.84;1018776;29;20301;-66
2021/09/06 00:04:15;;;;;;;11.80;9.80;;;;;;;10.63;100.00;96351.72;1022471;29;20297;-65
2021/09/06 00:04:45;;;;;;;14.98;10.13;;;;;;;10.61;100.00;96349.34;1031210;28;20357;-65
2021/09/06 00:05:16;;;;;;;13.43;9.88;;;;;;;10.59;100.00;96348.78;1026912;28;20034;-66
2021/09/06 00:05:46;;;;;;;12.80;9.65;;;;;;;10.62;100.00;96353.53;1034868;28;20037;-66
2021/09/06 00:06:17;;;;;;;11.48;9.57;;;;;;;10.64;100.00;96357.78;1030467;28;20033;-66
2021/09/06 00:06:47;;;;;;;11.93;9.45;;;;;;;10.60;100.00;96347.75;1030554;28;20034;-66
2021/09/06 00:07:18;;;;;;;11.38;10.18;;;;;;;10.57;100.00;96350.88;1026725;28;20030;-65
2021/09/06 00:07:51;;;;;;;13.02;10.30;;;;;;;10.64;100.00;96357.78;1030608;28;20052;-66
2021/09/06 00:08:22;;;;;;;12.20;9.80;;;;;;;10.61;100.00;96359.06;1022433;29;20118;-66
2021/09/06 00:08:52;;;;;;;11.60;9.75;;;;;;;10.61;100.00;96357.22;1022735;29;20313;-66
2021/09/06 00:09:22;;;;;;;11.25;9.75;;;;;;;10.57;100.00;96358.75;1033111;28;20092;-66
2021/09/06 00:09:57;;;;;;;13.65;10.43;;;;;;;10.55;100.00;96355.56;1030814;28;20069;-65
2021/09/06 00:10:36;;;;;;;13.40;10.60;;;;;;;10.55;100.00;96355.56;1026422;28;20411;-65
2021/09/06 00:11:09;;;;;;;12.48;9.48;;;;;;;10.54;100.00;96364.50;1018560;29;20256;-66
2021/09/06 00:11:39;;;;;;;13.18;9.60;;;;;;;10.52;100.00;96363.94;1026312;28;20787;-65
2021/09/06 00:12:10;;;;;;;12.88;10.15;;;;;;;10.52;100.00;96366.56;1018620;29;20393;-65
2021/09/06 00:12:40;;;;;;;13.02;10.68;;;;;;;10.52;100.00;96361.31;1028176;28;20031;-66
2021/09/06 00:13:14;;;;;;;13.50;10.70;;;;;;;10.50;100.00;96358.16;1034775;28;20088;-66
2021/09/06 00:13:44;;;;;;;10.93;9.73;;;;;;;10.49;100.00;96359.19;1022734;29;20047;-66
2021/09/06 00:14:15;;;;;;;12.30;9.35;;;;;;;10.43;100.00;96351.50;1026415;28;20273;-63
2021/09/06 00:14:45;;;;;;;12.52;10.10;;;;;;;10.49;100.00;96361.00;1022483;29;20130;-65
2021/09/06 00:15:16;;;;;;;13.02;10.57;;;;;;;10.48;100.00;96360.22;1022652;29;20031;-65
2021/09/06 00:15:46;;;;;;;10.90;9.73;;;;;;;10.41;100.00;96354.38;1030704;28;20065;-66
2021/09/06 00:16:17;;;;;;;13.30;10.77;;;;;;;10.40;100.00;96349.38;1025758;28;20023;-65
2021/09/06 00:16:48;;;;;;;12.60;10.13;;;;;;;10.44;100.00;96364.38;1022772;29;20105;-66
2021/09/06 00:17:18;;;;;;;10.50;9.32;;;;;;;10.43;100.00;96352.31;1026680;28;20034;-66
2021/09/06 00:17:49;;;;;;;11.75;9.32;;;;;;;10.44;100.00;96360.97;1026480;28;20054;-66
2021/09/06 00:18:19;;;;;;;14.77;10.18;;;;;;;10.43;100.00;96354.94;1026858;28;20050;-66
2021/09/06 00:18:50;;;;;;;14.95;10.50;;;;;;;10.44;100.00;96353.88;1026497;28;20300;-65
2021/09/06 00:19:23;;;;;;;15.48;9.93;;;;;;;10.45;100.00;96362.53;1026419;28;20029;-65
2021/09/06 00:19:54;;;;;;;14.35;10.60;;;;;;;10.44;100.00;96353.88;1034729;28;20483;-65
2021/09/06 00:20:24;;;;;;;12.70;9.60;;;;;;;10.45;100.00;96360.72;1034514;28;20261;-65
2021/09/06 00:20:58;;;;;;;10.38;8.95;;;;;;;10.48;100.00;96367.31;1026500;28;20061;-63
2021/09/06 00:21:31;;;;;;;13.30;9.30;;;;;;;10.47;100.00;96358.66;1025727;28;20034;-66
2021/09/06 00:22:01;;;;;;;12.10;9.60;;;;;;;10.50;100.00;96360.78;1026404;28;20299;-66
2021/09/06 00:22:32;;;;;;;12.80;10.55;;;;;;;10.51;100.00;96358.94;1030779;28;20636;-67
2021/09/06 00:23:03;;;;;;;10.40;9.13;;;;;;;10.52;100.00;96355.28;1026280;28;20032;-66
2021/09/06 00:23:34;;;;;;;12.38;9.57;;;;;;;10.53;100.00;96357.66;1026118;28;20389;-66
2021/09/06 00:24:05;;;;;;;11.35;9.52;;;;;;;10.54;100.00;96355.84;1026536;28;20019;-65
2021/09/06 00:24:35;;;;;;;11.95;9.30;;;;;;;10.54;100.00;96358.44;1018770;29;20559;-64
2021/09/06 00:25:06;;;;;;;10.73;9.55;;;;;;;10.54;100.00;96359.25;1028597;28;20022;-66
2021/09/06 00:25:37;;;;;;;11.02;8.80;;;;;;;10.54;100.00;96359.25;1022568;29;20050;-66
2021/09/06 00:26:07;;;;;;;10.57;9.15;;;;;;;10.58;100.00;96359.53;1022646;29;20500;-67
2021/09/06 00:26:38;;;;;;;10.80;8.85;;;;;;;10.58;100.00;96360.31;1023545;28;20323;-67
2021/09/06 00:27:09;;;;;;;12.30;9.38;;;;;;;10.58;100.00;96360.31;1030584;28;20014;-66
2021/09/06 00:27:42;;;;;;;13.77;10.23;;;;;;;10.61;100.00;96364.31;1022507;29;20020;-65
2021/09/06 00:28:13;;;;;;;12.55;10.18;;;;;;;10.62;100.00;96365.88;1017121;29;20051;-66
2021/09/06 00:28:43;;;;;;;12.32;9.52;;;;;;;10.62;100.00;96358.78;1026250;28;20293;-66
2021/09/06 00:29:13;;;;;;;11.30;9.70;;;;;;;10.62;100.00;96358.78;1026784;28;20034;-66
2021/09/06 00:29:44;;;;;;;14.20;10.55;;;;;;;10.62;100.00;96358.78;1026557;28;20019;-66
2021/09/06 00:30:14;;;;;;;13.68;9.43;;;;;;;10.60;100.00;96358.25;1024865;28;20058;-66
2021/09/06 00:30:45;;;;;;;12.95;10.50;;;;;;;10.58;100.00;96360.31;1030704;28;20050;-66
2021/09/06 00:31:16;;;;;;;15.55;10.55;;;;;;;10.54;100.00;96359.25;1029750;28;20534;-64
2021/09/06 00:31:46;;;;;;;17.42;10.38;;;;;;;10.52;100.00;96360.53;1034585;28;20026;-66
2021/09/06 00:32:20;;;;;;;12.05;9.75;;;;;;;10.51;100.00;96358.94;1018720;29;20414;-66
2021/09/06 00:32:50;;;;;;;13.57;9.60;;;;;;;10.49;100.00;96359.19;1034648;28;20022;-66
2021/09/06 00:33:21;;;;;;;12.65;9.73;;;;;;;10.48;100.00;96362.84;1030303;28;20352;-66
2021/09/06 00:33:51;;;;;;;12.93;9.80;;;;;;;10.49;100.00;96364.41;1026684;28;20477;-67
2021/09/06 00:34:22;;;;;;;15.48;9.63;;;;;;;10.49;100.00;96361.00;1026489;28;20071;-66
2021/09/06 00:34:53;;;;;;;12.38;9.82;;;;;;;10.48;100.00;96356.81;1026705;28;20113;-66
2021/09/06 00:35:24;;;;;;;13.98;9.65;;;;;;;10.49;100.00;96358.38;1025057;28;20069;-66
2021/09/06 00:35:54;;;;;;;12.95;9.68;;;;;;;10.50;100.00;96362.63;1014819;29;20608;-66
2021/09/06 00:36:25;;;;;;;12.90;9.70;;;;;;;10.49;100.00;96361.81;1026544;28;20042;-67
2021/09/06 00:36:55;;;;;;;15.93;10.43;;;;;;;10.51;100.00;96364.97;1026275;28;20033;-66
2021/09/06 00:37:26;;;;;;;13.80;9.80;;;;;;;10.49;100.00;96367.03;1026529;28;20090;-66
2021/09/06 00:37:56;;;;;;;12.13;10.05;;;;;;;10.47;100.00;96363.91;1030610;28;20031;-65
2021/09/06 00:38:27;;;;;;;13.05;10.48;;;;;;;10.49;100.00;96361.81;1026453;28;20448;-65
2021/09/06 00:38:57;;;;;;;13.27;10.07;;;;;;;10.47;100.00;96358.66;1022681;29;20030;-68
2021/09/06 00:39:27;;;;;;;12.23;9.88;;;;;;;10.44;100.00;96360.97;1025587;28;20186;-66
2021/09/06 00:39:58;;;;;;;12.77;9.80;;;;;;;10.47;100.00;96363.09;1021662;29;20030;-65
2021/09/06 00:40:28;;;;;;;15.13;11.15;;;;;;;10.45;100.00;96365.97;1029144;28;20554;-66
2021/09/06 00:40:59;;;;;;;26.90;11.52;;;;;;;10.42;100.00;96361.19;1034726;28;20045;-66
2021/09/06 00:41:29;;;;;;;36.38;11.73;;;;;;;10.41;100.00;96361.47;1028695;28;20496;-66
2021/09/06 00:42:00;;;;;;;12.93;9.85;;;;;;;10.41;100.00;96361.47;1022197;28;20079;-66
2021/09/06 00:42:30;;;;;;;32.53;12.50;;;;;;;10.40;100.00;96363.28;1027768;28;20081;-66
2021/09/06 00:43:01;;;;;;;17.48;11.35;;;;;;;10.37;100.00;96354.06;1026671;28;20027;-66
2021/09/06 00:43:31;;;;;;;20.05;11.43;;;;;;;10.35;100.00;96360.59;1029669;28;20451;-66
2021/09/06 00:44:02;;;;;;;15.00;11.10;;;;;;;10.25;100.00;96344.72;1030359;28;20023;-66
2021/09/06 00:44:33;;;;;;;16.50;11.00;;;;;;;10.30;100.00;96358.72;1030654;28;20022;-66
2021/09/06 00:45:04;;;;;;;19.33;10.60;;;;;;;10.30;100.00;96352.69;1026548;28;20070;-67
2021/09/06 00:45:36;;;;;;;17.48;10.80;;;;;;;10.29;100.00;96361.56;1028564;28;20031;-65
2021/09/06 00:46:07;;;;;;;15.35;10.95;;;;;;;10.28;100.00;96362.63;1030695;28;20359;-66
2021/09/06 00:46:43;;;;;;;13.68;10.82;;;;;;;10.29;100.00;96357.13;1026629;28;20266;-67
2021/09/06 00:47:14;;;;;;;16.77;10.68;;;;;;;10.30;100.00;96357.94;1026524;28;20019;-66
2021/09/06 00:47:44;;;;;;;12.73;10.60;;;;;;;10.33;100.00;96355.63;1022396;28;20418;-68
2021/09/06 00:48:17;;;;;;;13.80;11.10;;;;;;;10.33;100.00;96360.84;1022703;28;20066;-65
2021/09/06 00:48:48;;;;;;;12.35;10.27;;;;;;;10.31;100.00;96349.81;1027469;28;20025;-65
2021/09/06 00:49:19;;;;;;;13.32;11.77;;;;;;;10.33;100.00;96360.84;1026523;28;20293;-65
2021/09/06 00:49:49;;;;;;;15.18;11.25;;;;;;;10.31;100.00;96357.69;1022686;29;20145;-66
2021/09/06 00:50:20;;;;;;;13.15;10.85;;;;;;;10.29;100.00;96348.47;1018635;29;20626;-64
2021/09/06 00:50:50;;;;;;;13.43;10.88;;;;;;;10.28;100.00;96349.50;1025981;28;20122;-66
2021/09/06 00:51:21;;;;;;;14.48;10.65;;;;;;;10.26;100.00;96360.25;1026138;28;20046;-63
2021/09/06 00:51:52;;;;;;;16.83;12.63;;;;;;;10.25;100.00;96357.84;1026369;28;20079;-66
2021/09/06 00:52:22;;;;;;;15.73;11.05;;;;;;;10.24;100.00;96358.88;1022539;28;20035;-66
2021/09/06 00:52:53;;;;;;;16.10;10.93;;;;;;;10.23;100.00;96354.66;1030914;28;20026;-66
2021/09/06 00:53:23;;;;;;;13.55;11.07;;;;;;;10.23;100.00;96358.09;1026786;28;20375;-65
2021/09/06 00:53:54;;;;;;;16.25;12.02;;;;;;;10.20;100.00;96352.53;1026237;28;20247;-66
2021/09/06 00:54:24;;;;;;;15.52;11.02;;;;;;;10.20;100.00;96349.91;1026593;28;20027;-66
2021/09/06 00:54:55;;;;;;;15.43;10.82;;;;;;;10.17;100.00;96356.44;1030460;28;20140;-65
2021/09/06 00:55:25;;;;;;;14.73;10.95;;;;;;;10.17;100.00;96359.06;1034889;28;20064;-66
2021/09/06 00:55:56;;;;;;;14.90;11.43;;;;;;;10.18;100.00;96362.47;1022139;28;20047;-66
2021/09/06 00:56:27;;;;;;;13.13;10.75;;;;;;;10.18;100.00;96354.59;1034864;28;20132;-66
2021/09/06 00:56:57;;;;;;;16.35;10.70;;;;;;;10.18;100.00;96359.84;1022723;29;20110;-66
2021/09/06 00:57:28;;;;;;;12.93;10.85;;;;;;;10.12;100.00;96343.25;1026349;28;20023;-66
2021/09/06 00:57:58;;;;;;;13.07;10.18;;;;;;;10.17;100.00;96355.66;1026627;28;20031;-66
2021/09/06 00:58:29;;;;;;;13.75;11.27;;;;;;;10.15;100.00;96359.28;1030518;28;20037;-66
2021/09/06 00:58:59;;;;;;;14.48;10.82;;;;;;;10.15;100.00;96361.91;1025915;28;20023;-66
2021/09/06 00:59:30;;;;;;;14.80;11.10;;;;;;;10.12;100.00;96351.91;1026733;28;20065;-66
2021/09/06 01:00:01;;;;;;;12.27;10.73;;;;;;;10.10;100.00;96351.38;1026520;28;20046;-66
2021/09/06 01:00:31;;;;;;;15.95;11.73;;;;;;;10.11;100.00;96355.56;1026461;28;20031;-66
2021/09/06 01:01:02;;;;;;;17.33;11.23;;;;;;;10.12;100.00;96351.91;1030114;28;20297;-65
2021/09/06 01:01:32;;;;;;;13.77;10.55;;;;;;;10.11;100.00;96360.03;1021885;29;20460;-66
2021/09/06 01:02:03;;;;;;;13.55;11.30;;;;;;;10.08;100.00;96360.50;1030733;28;20076;-63
2021/09/06 01:02:33;;;;;;;16.20;10.43;;;;;;;10.11;100.00;96357.41;1032821;28;20022;-66
2021/09/06 01:03:04;;;;;;;15.50;11.40;;;;;;;10.12;100.00;96357.16;1026490;28;20019;-66
2021/09/06 01:03:34;;;;;;;17.50;12.23;;;;;;;10.12;100.00;96354.53;1026839;28;20070;-66
2021/09/06 01:04:05;;;;;;;14.93;11.15;;;;;;;10.11;100.00;96360.81;1022900;28;20059;-66
2021/09/06 01:04:35;;;;;;;17.77;11.10;;;;;;;10.10;100.00;96363.69;1030609;28;20593;-65
2021/09/06 01:05:06;;;;;;;14.40;11.30;;;;;;;10.08;100.00;96356.06;1026624;28;20034;-66
2021/09/06 01:05:37;;;;;;;16.27;11.50;;;;;;;10.08;100.00;96355.28;1022637;29;20019;-65
2021/09/06 01:06:07;;;;;;;12.88;10.90;;;;;;;10.01;100.00;96346.81;1022306;28;20039;-67
2021/09/06 01:06:37;;;;;;;12.82;10.90;;;;;;;10.10;100.00;96361.06;1024567;28;20102;-66
2021/09/06 01:07:09;;;;;;;15.98;11.85;;;;;;;10.11;100.00;96360.03;1026540;28;20070;-66
2021/09/06 01:07:39;;;;;;;13.82;11.48;;;;;;;10.09;100.00;96357.66;1024458;28;20038;-66
2021/09/06 01:08:10;;;;;;;16.10;11.73;;;;;;;10.09;100.00;96362.09;1022674;29;20262;-66
2021/09/06 01:08:40;;;;;;;14.05;12.25;;;;;;;10.07;100.00;96362.34;1022483;29;20031;-66
2021/09/06 01:09:11;;;;;;;15.55;11.00;;;;;;;10.06;100.00;96363.41;1026244;28;20070;-66
2021/09/06 01:09:41;;;;;;;14.00;10.75;;;;;;;10.05;100.00;96359.16;1018586;29;20139;-66
2021/09/06 01:10:13;;;;;;;11.90;9.57;;;;;;;9.99;100.00;96354.88;1022824;28;20031;-66
2021/09/06 01:10:43;;;;;;;13.77;10.48;;;;;;;10.05;100.00;96358.38;1031199;28;20056;-66
2021/09/06 01:11:14;;;;;;;14.48;12.00;;;;;;;10.03;100.00;96352.59;1026211;28;20336;-66
2021/09/06 01:11:44;;;;;;;14.02;10.95;;;;;;;10.00;100.00;96353.09;1019399;29;20032;-63
2021/09/06 01:12:15;;;;;;;15.90;11.70;;;;;;;10.00;100.00;96364.34;1027220;28;20031;-66
2021/09/06 01:12:45;;;;;;;12.75;10.70;;;;;;;9.96;100.00;96352.78;1031014;28;20053;-66
2021/09/06 01:13:16;;;;;;;12.02;9.80;;;;;;;10.01;100.00;96359.91;1023358;29;20122;-65
2021/09/06 01:13:46;;;;;;;15.15;10.85;;;;;;;9.99;100.00;96359.34;1023358;28;20066;-66
2021/09/06 01:14:17;;;;;;;14.38;11.20;;;;;;;10.00;100.00;96358.31;1026914;28;20054;-65
2021/09/06 01:14:47;;;;;;;13.82;11.15;;;;;;;10.00;100.00;96366.97;1035367;28;20029;-67
2021/09/06 01:15:18;;;;;;;11.82;10.50;;;;;;;10.02;100.00;96362.28;1023223;28;20031;-66
2021/09/06 01:15:48;;;;;;;15.80;12.82;;;;;;;10.02;100.00;96362.28;1031556;28;20026;-66
2021/09/06 01:16:19;;;;;;;13.38;11.38;;;;;;;10.00;100.00;96358.31;1026966;28;20125;-66
2021/09/06 01:16:50;;;;;;;13.27;10.57;;;;;;;9.99;100.00;96362.75;1023180;29;20035;-66
2021/09/06 01:17:20;;;;;;;14.65;11.38;;;;;;;9.99;100.00;96362.75;1035402;28;20444;-66
2021/09/06 01:17:51;;;;;;;14.93;10.77;;;;;;;9.98;100.00;96361.19;1023023;28;20474;-66
2021/09/06 01:18:21;;;;;;;15.70;11.88;;;;;;;9.97;100.00;96364.84;1031367;28;20030;-66
2021/09/06 01:18:52;;;;;;;17.55;11.57;;;;;;;9.97;100.00;96366.69;1023335;28;20039;-67
2021/09/06 01:19:22;;;;;;;15.70;11.07;;;;;;;9.97;100.00;96362.22;1031172;28;20527;-66
2021/09/06 01:19:53;;;;;;;13.32;11.00;;;;;;;9.98;100.00;96363.81;1027314;28;20062;-66
2021/09/06 01:20:23;;;;;;;19.92;11.95;;;;;;;10.00;100.00;96363.56;1027211;28;20373;-66
2021/09/06 01:20:54;;;;;;;17.40;12.45;;;;;;;9.98;100.00;96355.94;1027323;28;20058;-66
2021/09/06 01:21:24;;;;;;;19.02;10.82;;;;;;;9.95;100.00;96356.41;1026412;28;20275;-63
2021/09/06 01:21:55;;;;;;;15.90;11.32;;;;;;;9.97;100.00;96359.59;1034884;28;20068;-65
2021/09/06 01:22:25;;;;;;;13.93;11.32;;;;;;;9.95;100.00;96361.66;1027494;28;20555;-62
2021/09/06 01:22:56;;;;;;;13.75;10.75;;;;;;;9.95;100.00;96358.25;1025831;28;20031;-65
2021/09/06 01:23:26;;;;;;;17.13;11.45;;;;;;;9.95;100.00;96363.50;1029405;28;20030;-67
2021/09/06 01:23:58;;;;;;;15.20;10.25;;;;;;;9.95;100.00;96360.88;1023443;29;20062;-65
2021/09/06 01:24:29;;;;;;;16.30;11.23;;;;;;;9.96;100.00;96355.41;1027185;28;20030;-66
2021/09/06 01:24:59;;;;;;;13.70;11.10;;;;;;;9.97;100.00;96361.44;1027035;28;20348;-66
2021/09/06 01:25:30;;;;;;;15.32;11.32;;;;;;;9.90;100.00;96349.28;1027338;28;20097;-66
2021/09/06 01:26:00;;;;;;;13.73;10.35;;;;;;;9.94;100.00;96361.91;1031214;28;20026;-66
2021/09/06 01:26:31;;;;;;;14.63;11.50;;;;;;;9.94;100.00;96361.91;1027491;28;20871;-66
2021/09/06 01:27:01;;;;;;;14.38;11.65;;;;;;;9.94;100.00;96361.91;1023028;29;20034;-66
2021/09/06 01:27:32;;;;;;;14.13;11.55;;;;;;;9.95;100.00;96361.66;1031272;28;20065;-66
2021/09/06 01:28:03;;;;;;;13.00;10.85;;;;;;;9.96;100.00;96373.75;1031315;28;20022;-66
2021/09/06 01:28:34;;;;;;;14.25;11.52;;;;;;;9.97;100.00;96369.31;1019103;28;20111;-65
2021/09/06 01:29:07;;;;;;;14.02;11.30;;;;;;;9.95;100.00;96368.72;1023274;28;20039;-66
2021/09/06 01:29:40;;;;;;;13.82;11.10;;;;;;;9.91;100.00;96366.59;1027523;28;20282;-66
2021/09/06 01:30:11;;;;;;;14.82;11.18;;;;;;;9.91;100.00;96371.84;1031025;28;20275;-66
2021/09/06 01:30:42;;;;;;;14.18;11.23;;;;;;;9.89;100.00;96367.88;1035290;28;20271;-66
2021/09/06 01:31:12;;;;;;;11.02;9.88;;;;;;;9.89;100.00;96366.06;1026760;28;20364;-65
2021/09/06 01:31:43;;;;;;;11.95;10.23;;;;;;;9.87;100.00;96364.72;1026663;28;20339;-66
2021/09/06 01:32:13;;;;;;;13.15;9.82;;;;;;;9.87;100.00;96365.50;1023384;28;20098;-66
2021/09/06 01:32:44;;;;;;;12.23;10.85;;;;;;;9.88;100.00;96368.91;1019254;29;20036;-66
2021/09/06 01:33:14;;;;;;;14.88;10.90;;;;;;;9.88;100.00;96371.53;1027210;28;20129;-66
2021/09/06 01:33:45;;;;;;;12.57;10.07;;;;;;;9.88;100.00;96372.31;1030383;28;20084;-66
2021/09/06 01:34:15;;;;;;;14.02;11.52;;;;;;;9.88;100.00;96368.91;1023235;29;20031;-65
2021/09/06 01:34:46;;;;;;;13.90;11.30;;;;;;;9.87;100.00;96375.19;1027350;28;20051;-66
2021/09/06 01:35:22;;;;;;;13.18;10.52;;;;;;;9.87;100.00;96376.00;1027068;28;20431;-63
2021/09/06 01:35:53;;;;;;;13.40;10.65;;;;;;;9.85;100.00;96372.81;1027138;28;20096;-66
2021/09/06 01:36:23;;;;;;;13.80;10.45;;;;;;;9.85;100.00;96370.19;1027195;28;20349;-65
2021/09/06 01:36:54;;;;;;;13.82;11.48;;;;;;;9.84;100.00;96370.44;1032410;28;20042;-67
2021/09/06 01:37:24;;;;;;;15.25;10.95;;;;;;;9.84;100.00;96373.84;1027330;28;20624;-63
2021/09/06 01:37:55;;;;;;;15.18;12.07;;;;;;;9.86;100.00;96376.25;1023130;29;20419;-66
2021/09/06 01:38:28;;;;;;;14.32;11.13;;;;;;;9.84;100.00;96381.72;1026149;28;20034;-62
2021/09/06 01:38:58;;;;;;;13.60;11.50;;;;;;;9.87;100.00;96380.44;1031321;28;20261;-66
2021/09/06 01:39:29;;;;;;;16.45;12.27;;;;;;;9.84;100.00;96376.47;1031355;28;20534;-66
2021/09/06 01:39:59;;;;;;;13.90;10.82;;;;;;;9.80;100.00;96371.97;1019042;29;20058;-66
2021/09/06 01:40:30;;;;;;;14.88;11.68;;;;;;;9.84;100.00;96383.53;1019268;29;20680;-66
2021/09/06 01:41:00;;;;;;;13.77;11.85;;;;;;;9.83;100.00;96379.34;1015300;29;20028;-66
2021/09/06 01:41:32;;;;;;;13.32;11.10;;;;;;;9.83;100.00;96381.97;1026551;28;20477;-66
2021/09/06 01:42:05;;;;;;;14.65;11.02;;;;;;;9.82;100.00;96368.03;1030902;28;20022;-66
2021/09/06 01:42:36;;;;;;;16.13;12.05;;;;;;;9.81;100.00;96376.16;1027249;28;20273;-65
2021/09/06 01:43:06;;;;;;;13.45;11.60;;;;;;;9.75;100.00;96370.03;1026437;28;20333;-66
2021/09/06 01:43:37;;;;;;;13.43;11.43;;;;;;;9.83;100.00;96385.38;1030577;28;20514;-66
2021/09/06 01:44:07;;;;;;;15.07;11.48;;;;;;;9.81;100.00;96376.94;1031145;28;20069;-66
2021/09/06 01:44:38;;;;;;;13.50;11.63;;;;;;;9.80;100.00;96369.34;1025592;28;20034;-64
2021/09/06 01:45:09;;;;;;;16.75;11.43;;;;;;;9.80;100.00;96375.38;1028691;28;20097;-66
2021/09/06 01:45:39;;;;;;;16.73;12.10;;;;;;;9.80;100.00;96377.19;1020887;29;20753;-66
2021/09/06 01:46:13;;;;;;;14.77;11.82;;;;;;;9.78;100.00;96376.63;1026789;28;20037;-66
2021/09/06 01:46:44;;;;;;;14.48;12.45;;;;;;;9.77;100.00;96381.09;1024153;28;20321;-66
2021/09/06 01:47:14;;;;;;;14.85;12.07;;;;;;;9.78;100.00;96377.44;1025202;28;20039;-66
2021/09/06 01:47:45;;;;;;;13.20;10.60;;;;;;;9.77;100.00;96372.44;1030926;28;20054;-66
2021/09/06 01:48:15;;;;;;;18.88;12.32;;;;;;;9.77;100.00;96369.81;1034724;28;20037;-65
2021/09/06 01:48:46;;;;;;;21.77;11.93;;;;;;;9.76;100.00;96369.03;1027941;28;20381;-66
2021/09/06 01:49:16;;;;;;;20.05;11.90;;;;;;;9.77;100.00;96375.84;1026949;28;20476;-66
2021/09/06 01:49:46;;;;;;;16.40;12.07;;;;;;;9.77;100.00;96369.81;1027478;28;20728;-66
2021/09/06 01:50:17;;;;;;;17.33;12.27;;;;;;;9.71;100.00;96366.31;1028479;28;20038;-65
2021/09/06 01:50:47;;;;;;;15.10;12.30;;;;;;;9.79;100.00;96378.22;1022901;28;20066;-65
2021/09/06 01:51:18;;;;;;;14.90;12.20;;;;;;;9.78;100.00;96376.63;1022552;28;20045;-63
2021/09/06 01:51:48;;;;;;;16.23;12.63;;;;;;;9.78;100.00;96371.41;1018196;29;20086;-66
2021/09/06 01:52:19;;;;;;;20.00;12.40;;;;;;;9.77;100.00;96370.59;1018841;29;20043;-66
2021/09/06 01:52:49;;;;;;;17.23;12.20;;;;;;;9.71;100.00;96365.53;1019395;29;20549;-66
2021/09/06 01:53:20;;;;;;;13.65;11.43;;;;;;;9.76;100.00;96371.66;1023285;28;20035;-66
2021/09/06 01:53:51;;;;;;;15.75;11.60;;;;;;;9.74;100.00;96365.84;1026357;28;20727;-67
2021/09/06 01:54:21;;;;;;;13.57;10.85;;;;;;;9.75;100.00;96369.25;1027080;28;20407;-66
2021/09/06 01:54:52;;;;;;;14.90;11.93;;;;;;;9.73;100.00;96373.97;1027167;28;20266;-66
2021/09/06 01:55:22;;;;;;;14.75;11.00;;;;;;;9.73;100.00;96366.88;1030847;28;20038;-67
2021/09/06 01:55:53;;;;;;;16.40;11.57;;;;;;;9.74;100.00;96368.47;1034320;28;20162;-66
2021/09/06 01:56:23;;;;;;;13.93;11.25;;;;;;;9.71;100.00;96371.56;1030849;28;20118;-67
2021/09/06 01:56:54;;;;;;;17.58;12.48;;;;;;;9.73;100.00;96371.34;1026961;28;20030;-66
2021/09/06 01:57:24;;;;;;;18.95;12.25;;;;;;;9.71;100.00;96362.91;1026893;28;20042;-66
2021/09/06 01:57:54;;;;;;;14.52;12.27;;;;;;;9.71;100.00;96371.56;1027239;28;20034;-64
2021/09/06 01:58:25;;;;;;;14.25;11.73;;;;;;;9.72;100.00;96369.72;1023227;28;20047;-67
2021/09/06 01:58:56;;;;;;;14.57;10.35;;;;;;;9.72;100.00;96367.91;1034252;28;20057;-65
2021/09/06 01:59:26;;;;;;;17.92;11.82;;;;;;;9.74;100.00;96370.31;1039447;28;20041;-66
2021/09/06 01:59:57;;;;;;;13.82;11.82;;;;;;;9.68;100.00;96362.34;1039197;28;21138;-66
2021/09/06 02:00:28;;;;;;;15.52;12.30;;;;;;;9.59;100.00;96347.28;1032514;28;20514;-66
2021/09/06 02:00:58;;;;;;;12.75;11.02;;;;;;;9.67;100.00;96360.00;1030053;28;20046;-64
2021/09/06 02:01:29;;;;;;;13.68;11.02;;;;;;;9.70;100.00;96374.44;1026423;28;20332;-66
2021/09/06 02:01:59;;;;;;;15.85;11.30;;;;;;;9.70;100.00;96363.97;1027200;28;20122;-64
2021/09/06 02:02:30;;;;;;;14.90;12.23;;;;;;;9.71;100.00;96370.78;1026964;28;20039;-66
2021/09/06 02:03:00;;;;;;;14.60;11.43;;;;;;;9.71;100.00;96373.41;1026975;28;20536;-66
2021/09/06 02:03:30;;;;;;;14.18;10.95;;;;;;;9.68;100.00;96372.84;1027249;28;20038;-66
2021/09/06 02:04:01;;;;;;;15.13;12.15;;;;;;;9.68;100.00;96367.59;1022448;28;20027;-66
2021/09/06 02:04:31;;;;;;;18.67;10.95;;;;;;;9.62;100.00;96363.34;1027183;28;20129;-67
2021/09/06 02:05:02;;;;;;;27.20;12.05;;;;;;;9.67;100.00;96362.59;1026989;28;20035;-66
2021/09/06 02:05:33;;;;;;;18.90;11.90;;;;;;;9.70;100.00;96374.44;1031062;28;20022;-66
2021/09/06 02:06:03;;;;;;;13.85;11.63;;;;;;;9.63;100.00;96369.38;1030566;28;20046;-66
2021/09/06 02:06:34;;;;;;;14.82;10.18;;;;;;;9.60;100.00;96370.63;1031118;28;20818;-65
2021/09/06 02:07:04;;;;;;;14.30;10.40;;;;;;;9.59;100.00;96358.56;1034722;28;20597;-66
2021/09/06 02:07:34;;;;;;;16.50;10.98;;;;;;;9.63;100.00;96375.41;1028775;28;20400;-66
2021/09/06 02:08:05;;;;;;;17.83;12.10;;;;;;;9.64;100.00;96376.97;1027004;28;20489;-67
2021/09/06 02:08:35;;;;;;;16.98;12.52;;;;;;;9.66;100.00;96372.31;1022914;28;20489;-66
2021/09/06 02:09:06;;;;;;;14.68;11.95;;;;;;;9.65;100.00;96378.56;1026327;28;20023;-66
2021/09/06 02:09:36;;;;;;;15.60;11.80;;;;;;;9.63;100.00;96375.41;1026967;28;20066;-66
2021/09/06 02:10:07;;;;;;;18.92;12.35;;;;;;;9.62;100.00;96375.63;1023282;28;20031;-66
2021/09/06 02:10:38;;;;;;;16.05;11.43;;;;;;;9.60;100.00;96378.50;1026872;28;20070;-67
2021/09/06 02:11:08;;;;;;;25.70;12.98;;;;;;;9.62;100.00;96375.63;1022574;28;20031;-66
2021/09/06 02:11:38;;;;;;;31.70;11.70;;;;;;;9.63;100.00;96375.41;1026678;28;20069;-63
2021/09/06 02:12:09;;;;;;;18.00;12.90;;;;;;;9.57;100.00;96363.25;1031019;28;20038;-66
2021/09/06 02:12:39;;;;;;;24.25;12.15;;;;;;;9.62;100.00;96379.06;1030763;28;20169;-66
2021/09/06 02:13:10;;;;;;;17.70;13.13;;;;;;;9.53;100.00;96370.00;1035113;28;20121;-66
2021/09/06 02:13:40;;;;;;;16.80;12.43;;;;;;;9.56;100.00;96376.59;1031083;28;20038;-66
2021/09/06 02:14:11;;;;;;;19.92;12.18;;;;;;;9.60;100.00;96381.13;1023302;28;20031;-66
2021/09/06 02:14:41;;;;;;;17.52;11.43;;;;;;;9.60;100.00;96383.75;1026707;28;20029;-67
2021/09/06 02:15:11;;;;;;;17.17;11.35;;;;;;;9.60;100.00;96383.75;1023028;28;20540;-66
2021/09/06 02:15:42;;;;;;;17.20;11.85;;;;;;;9.53;100.00;96375.25;1023082;28;20482;-66
2021/09/06 02:16:12;;;;;;;16.23;10.95;;;;;;;9.59;100.00;96384.78;1024542;28;20035;-66
2021/09/06 02:16:43;;;;;;;14.70;11.73;;;;;;;9.59;100.00;96387.41;1022925;29;20050;-67
2021/09/06 02:17:13;;;;;;;15.82;12.70;;;;;;;9.56;100.00;96382.63;1027037;28;20038;-66
2021/09/06 02:17:44;;;;;;;14.50;10.73;;;;;;;9.58;100.00;96383.16;1026712;28;20081;-66
2021/09/06 02:18:14;;;;;;;14.23;11.80;;;;;;;9.42;100.00;96355.16;1027033;28;20030;-69
2021/09/06 02:18:45;;;;;;;14.30;10.82;;;;;;;9.58;100.00;96380.56;1027274;28;20034;-67
2021/09/06 02:19:15;;;;;;;15.18;10.82;;;;;;;9.58;100.00;96380.56;1030876;28;20470;-64
2021/09/06 02:19:45;;;;;;;13.55;11.07;;;;;;;9.59;100.00;96382.16;1031010;28;20034;-66
2021/09/06 02:20:16;;;;;;;12.68;10.52;;;;;;;9.55;100.00;96378.41;1030964;28;20328;-65
2021/09/06 02:20:46;;;;;;;16.25;11.13;;;;;;;9.59;100.00;96384.78;1027012;28;20026;-67